Аэропорт
Международный аэропорт Кансай (RJBB)

 RJBB / KIX

Japan
JP-27
Осака
 34.42730, 135.24400  / 26 ft

 RJBB 182230Z 09005KT 9999 FEW020 SCT035 BKN/// 24/19 Q1015 NOSIG
 TAF RJBB 181706Z 1818/2000 03007KT 9999 FEW020 SCT045 BECMG 1900/1902 27005KT BECMG 1909/1912 07012KT

2020 © VATRUS division (Privacy Policy)